Date,TemperatureHighF,TemperatureAvgF,TemperatureLowF,DewpointHighF,DewpointAvgF,DewpointLowF,HumidityHigh,HumidityAvg,HumidityLow,PressureMaxIn,PressureMinIn,WindSpeedMaxMPH,WindSpeedAvgMPH,GustSpeedMaxMPH,PrecipitationSumIn
2013-1-1,67.6,54.2,45.6,51.4,42.5,38.3,76,65,56,30.18,29.86,16,4,16,0.21
2013-1-2,45.6,43.6,42.3,38.5,36.6,35.3,77,76,75,30.28,30.15,15,4,15,0.01
2013-1-3,52.9,46.2,39.4,38.1,35.7,32.8,80,67,50,30.39,30.26,13,3,13,0.00
2013-1-4,49.6,47.9,43.8,39.9,38.5,36.6,77,70,66,30.47,30.33,14,2,14,0.00
2013-1-5,47.0,45.5,42.2,40.3,34.7,31.5,80,66,61,30.36,30.22,7,1,7,0.58
2013-1-6,59.6,47.8,37.7,46.6,36.8,29.7,79,66,55,30.34,30.22,14,2,14,0.00
2013-1-7,59.2,47.1,32.8,49.3,38.1,23.0,76,71,62,30.29,30.06,9,1,9,0.00
2013-1-8,63.4,57.8,50.7,47.6,44.2,37.8,77,61,56,30.07,29.83,19,2,19,0.34
2013-1-9,67.2,64.3,61.5,53.6,48.6,45.8,63,57,55,30.03,29.82,16,3,16,2.07
2013-1-10,69.5,59.7,50.3,53.8,47.0,40.2,78,63,55,30.08,29.96,11,1,11,0.03
2013-1-11,71.9,59.2,43.4,62.4,47.2,31.7,74,65,55,30.03,29.84,15,2,15,0.01
2013-1-12,74.4,72.3,67.5,62.0,56.6,50.8,66,58,53,29.85,29.67,20,4,20,0.11
2013-1-13,71.3,47.6,41.0,54.3,38.3,30.9,76,70,55,30.11,29.74,23,6,23,0.17
2013-1-14,46.6,43.4,38.1,39.1,36.2,29.4,78,76,69,30.21,30.05,16,4,16,0.02
2013-1-15,44.1,38.8,36.6,37.7,30.5,27.0,78,72,67,30.15,30.01,18,4,18,0.09
2013-1-16,51.2,41.5,31.9,32.8,29.6,25.1,80,64,37,30.29,30.13,18,5,18,0.00
2013-1-17,47.4,32.4,28.0,35.7,25.3,21.0,80,75,65,30.44,30.26,6,0,6,0.00
2013-1-18,63.7,47.3,33.6,44.6,36.3,25.2,79,67,46,30.50,30.34,11,1,11,0.00
2013-1-19,71.0,52.5,35.4,52.3,41.6,26.0,77,67,49,30.34,30.15,10,0,10,0.00
2013-1-20,70.4,54.4,40.8,55.8,42.5,29.2,78,64,53,30.25,30.09,7,1,7,0.00
2013-1-21,71.4,55.4,41.5,57.6,44.3,29.9,78,66,56,30.23,30.11,6,0,6,0.00
2013-1-22,68.4,52.8,42.5,56.0,42.6,31.3,79,68,59,30.30,30.17,11,1,11,0.00
2013-1-23,76.0,60.1,44.9,61.8,48.1,32.3,77,65,55,30.33,30.20,10,1,10,0.01
2013-1-24,66.8,60.8,58.7,49.7,45.2,43.0,59,56,55,30.26,30.13,9,1,10,0.01
2013-1-25,80.0,68.2,58.8,66.1,55.0,43.2,77,63,53,30.16,30.04,18,2,18,0.00
2013-1-26,79.0,68.2,61.6,64.6,54.6,45.6,77,62,53,30.16,30.05,12,2,15,0.00
2013-1-27,77.3,68.2,60.9,67.0,55.0,45.1,72,63,54,30.11,30.00,17,3,17,0.06
2013-1-28,80.7,73.0,69.3,68.4,61.4,55.0,76,67,60,30.07,29.92,19,5,19,0.00
2013-1-29,78.0,72.8,59.5,69.7,63.2,52.3,79,72,63,29.92,29.57,27,6,27,0.06
2013-1-30,61.6,55.6,39.3,54.1,36.9,30.4,81,51,36,30.23,29.74,29,7,29,0.00
2013-1-31,68.9,50.4,32.4,41.9,34.2,25.4,81,58,28,30.30,30.18,14,1,14,0.00
2013-2-1,71.9,57.5,44.1,51.3,43.9,38.0,80,63,35,30.34,30.21,14,2,14,0.00
2013-2-2,78.0,60.3,44.5,58.7,48.6,34.4,80,66,46,30.24,30.14,6,1,11,0.00
2013-2-3,72.4,59.7,48.4,50.4,43.2,38.0,76,57,33,30.30,30.02,12,2,12,0.00
2013-2-4,74.0,64.2,56.4,64.4,54.1,46.7,78,70,56,30.03,29.79,12,1,12,0.02
2013-2-5,79.5,69.0,64.3,68.0,54.9,47.8,74,61,54,29.95,29.83,11,1,11,0.00
2013-2-6,66.0,63.9,61.8,55.1,50.7,47.6,69,62,55,30.00,29.82,17,3,17,0.43
2013-2-7,71.3,63.7,55.3,62.2,51.6,41.2,73,65,57,29.97,29.87,9,0,9,0.00
2013-2-8,68.3,59.7,52.9,55.7,50.6,44.1,79,72,60,30.16,29.97,14,3,14,0.00
2013-2-9,70.8,63.6,54.9,61.7,55.4,45.9,79,75,64,30.09,29.82,20,4,20,0.00
2013-2-10,74.4,67.1,59.0,61.8,54.7,47.8,76,65,54,29.94,29.72,22,3,22,0.08
2013-2-11,63.5,57.6,54.4,53.4,48.0,42.1,79,70,61,30.03,29.92,15,3,15,0.05
2013-2-12,63.5,57.9,55.0,55.1,45.8,41.4,74,64,58,29.97,29.79,15,2,15,0.10
2013-2-13,61.8,52.4,42.5,48.4,42.3,36.6,80,69,54,30.11,29.96,18,4,18,0.00
2013-2-14,64.5,45.1,33.8,46.9,34.6,25.6,80,68,43,30.15,30.07,7,0,7,0.00
2013-2-15,65.8,56.3,50.2,44.5,42.2,36.4,70,60,46,30.31,30.12,19,6,19,0.00
2013-2-16,63.1,49.6,36.1,38.6,34.3,29.9,79,58,36,30.43,30.24,17,2,17,0.00
2013-2-17,72.3,56.7,38.2,54.5,43.8,30.1,80,64,37,30.24,30.01,20,3,20,0.00
2013-2-18,74.2,67.3,56.2,65.7,58.9,48.4,78,74,63,30.06,29.81,22,4,22,0.53
2013-2-19,68.6,59.1,47.4,50.5,43.5,38.7,78,58,35,30.23,30.06,14,2,14,0.00
2013-2-20,64.8,58.6,55.0,53.2,47.1,36.8,79,66,49,30.08,29.74,24,5,24,0.11
2013-2-21,78.0,68.7,55.8,68.1,54.7,49.1,79,61,48,29.83,29.63,23,4,23,0.12
2013-2-22,65.8,59.3,54.6,53.7,48.5,43.0,79,68,58,29.96,29.81,15,2,15,0.00
2013-2-23,70.3,57.1,47.7,54.8,47.3,41.4,81,70,53,29.98,29.86,11,2,11,0.00
2013-2-24,70.5,57.9,41.8,59.4,48.6,32.3,78,71,63,29.91,29.63,13,2,15,0.00
2013-2-25,75.3,64.9,52.3,57.8,44.0,32.8,72,49,23,29.73,29.51,30,8,30,0.01
2013-2-27,64.8,54.5,48.8,41.2,35.2,31.9,54,48,42,30.15,30.02,18,3,18,0.00
2013-2-28,59.0,48.6,40.7,37.7,33.2,30.2,79,56,43,30.27,30.14,16,3,16,0.00
2013-3-1,66.2,51.3,35.1,38.1,34.0,29.6,80,55,28,30.28,30.12,15,2,15,0.00
2013-3-2,57.6,48.1,37.5,38.0,31.4,26.0,77,54,34,30.33,30.23,21,4,25,0.00
2013-3-3,70.8,52.4,32.1,49.7,38.7,26.6,81,63,37,30.27,29.98,17,2,17,0.00
2013-3-4,79.6,66.7,54.4,63.5,57.0,47.3,79,72,54,29.98,29.75,29,5,29,0.00
2013-3-5,69.4,62.8,49.4,61.3,44.3,29.3,78,53,30,30.29,29.77,24,6,24,0.00
2013-3-6,68.3,53.0,38.2,43.1,32.7,27.0,74,48,25,30.41,30.21,13,2,13,0.00
2013-3-7,70.8,56.4,39.0,52.2,45.5,32.6,82,68,47,30.25,30.14,15,3,15,0.00
2013-3-8,71.5,62.8,54.0,61.5,53.4,42.9,79,71,63,30.18,30.04,19,3,19,0.00
2013-3-9,71.1,69.9,69.4,62.8,61.5,60.4,76,75,73,29.79,29.72,23,6,23,0.00
2013-3-10,70.4,63.5,53.8,61.7,50.3,40.9,76,63,48,30.04,29.69,18,5,20,0.29
2013-3-11,63.2,53.5,42.8,41.0,34.5,28.1,76,51,29,30.12,29.98,21,4,22,0.00
2013-3-12,74.5,55.4,36.0,47.4,38.8,30.8,81,58,29,30.22,30.05,12,1,12,0.00
2013-3-13,73.5,58.3,41.6,50.7,42.7,33.6,80,59,35,30.42,30.22,12,1,12,0.00
2013-3-14,77.4,59.8,41.7,55.5,46.1,33.3,79,63,39,30.39,30.24,15,2,15,0.00
2013-3-15,80.7,64.0,46.4,61.5,52.2,36.8,79,67,45,30.25,30.03,18,2,18,0.00
2013-3-16,81.8,68.4,55.8,63.9,56.7,44.2,78,67,49,30.03,29.81,22,4,22,0.00
2013-3-17,83.4,71.7,62.5,69.0,60.2,49.8,77,67,58,29.84,29.66,19,3,19,0.00
2013-3-18,93.6,77.6,68.1,70.2,61.8,55.0,73,59,42,29.86,29.68,14,2,14,0.00
2013-3-19,80.2,71.3,64.7,68.0,61.1,54.4,78,71,56,29.95,29.85,16,3,16,0.00
2013-3-20,77.1,64.9,56.4,60.6,51.6,42.8,80,65,33,30.16,29.90,19,3,24,0.01
2013-3-21,74.7,63.0,50.9,60.7,52.5,41.1,80,69,54,30.02,29.68,20,4,20,0.00
2013-3-22,82.0,74.0,66.1,71.7,63.6,55.7,75,70,63,29.71,29.63,15,2,15,0.00
2013-3-23,75.7,68.9,61.8,66.6,58.3,50.8,75,69,62,29.71,29.56,11,1,11,0.00
2013-3-24,64.9,56.9,47.8,52.5,40.7,32.8,76,56,38,30.12,29.61,30,7,31,0.00
2013-3-25,63.3,50.5,37.9,33.9,31.2,27.6,79,50,28,30.35,30.12,16,3,16,0.00
2013-3-26,66.1,51.1,34.4,35.8,30.6,26.6,78,48,26,30.47,30.29,10,2,15,0.00
2013-3-27,70.6,54.6,34.7,51.1,41.9,28.5,80,64,41,30.34,30.18,19,3,19,0.00
2013-3-28,73.4,65.1,57.0,61.5,56.6,50.1,80,74,64,30.22,30.14,20,3,20,0.00
2013-3-29,79.8,67.6,56.9,63.8,56.9,46.1,78,69,52,30.19,30.06,17,3,17,0.00
2013-3-30,82.1,71.6,63.7,66.6,59.9,52.2,78,67,57,30.11,29.92,13,2,13,0.00
2013-3-31,87.5,71.4,62.9,70.7,59.9,52.9,78,67,55,29.95,29.82,22,2,22,0.02
2013-4-1,81.8,69.5,57.8,68.4,58.6,46.1,79,69,60,30.03,29.91,15,2,15,0.00
2013-4-2,72.4,67.2,61.7,63.3,55.7,49.9,73,67,62,29.98,29.75,23,2,23,1.19
2013-4-3,63.6,59.9,53.6,54.7,49.4,44.1,76,68,64,30.06,29.69,17,4,17,0.14
2013-4-4,57.5,53.5,51.5,48.4,45.2,42.6,78,73,69,30.17,30.01,18,5,18,0.00
2013-4-5,72.3,57.8,42.7,56.9,47.4,35.7,80,69,52,30.24,30.06,13,1,13,0.00
2013-4-6,76.7,63.9,52.1,63.1,54.1,42.5,80,71,59,30.09,29.91,17,3,19,0.00
2013-4-7,79.5,70.1,62.1,66.1,59.9,52.3,79,70,60,29.95,29.81,13,3,21,0.00
2013-4-8,82.2,73.5,66.3,68.8,62.7,54.2,78,69,60,29.85,29.72,23,4,23,0.00
2013-4-9,83.5,75.7,69.2,73.1,65.9,57.4,77,72,66,29.76,29.65,25,6,25,0.00
2013-4-10,81.2,65.8,49.9,72.9,57.2,42.2,81,74,61,29.83,29.66,20,5,20,0.07
2013-4-11,71.4,55.6,43.7,51.6,44.3,37.3,80,67,45,29.94,29.76,16,3,16,0.56
2013-4-12,79.9,62.3,45.0,56.6,47.5,36.9,79,61,35,29.98,29.84,7,1,7,0.00
2013-4-13,78.0,64.3,49.3,60.5,53.0,40.7,79,68,48,29.94,29.79,15,2,15,0.00
2013-4-14,87.2,68.5,54.3,72.7,58.2,44.1,79,70,59,29.79,29.63,16,2,16,0.00
2013-4-15,80.8,74.5,69.1,71.7,64.4,57.0,76,71,65,29.81,29.71,12,3,12,0.00
2013-4-16,82.3,75.9,69.5,72.4,64.9,57.0,76,69,63,29.90,29.80,15,3,15,0.00
2013-4-17,78.0,75.1,73.1,67.8,62.9,59.8,71,66,63,29.90,29.71,18,4,18,0.00
2013-4-18,77.3,65.8,54.6,68.0,57.0,45.8,78,73,70,30.02,29.66,21,4,21,0.07
2013-4-19,68.8,55.9,44.8,46.0,39.2,34.6,75,56,31,30.23,30.01,20,3,20,0.01
2013-4-20,70.5,55.3,37.2,51.2,42.6,31.5,81,64,42,30.23,30.05,16,2,16,0.00
2013-4-21,74.6,63.1,50.3,60.7,53.6,43.6,83,72,59,30.14,30.01,12,1,12,0.00
2013-4-22,83.0,66.9,50.5,65.9,56.1,41.6,79,69,53,30.09,29.90,13,2,13,0.00
2013-4-23,81.3,71.6,62.1,70.4,61.6,51.0,79,71,65,29.97,29.83,16,2,16,0.00
2013-4-24,72.3,60.1,48.7,55.9,48.4,42.4,81,67,48,30.18,29.97,20,3,20,0.09
2013-4-25,73.8,65.4,59.3,60.1,51.4,45.6,78,61,41,30.28,30.14,12,2,12,0.00
2013-4-26,83.9,73.9,66.8,71.8,64.1,56.5,80,72,64,30.18,30.04,21,3,21,0.00
2013-4-27,78.2,70.2,64.3,69.6,59.4,53.0,76,69,64,30.09,29.95,21,2,21,1.90
2013-4-28,82.1,71.6,63.4,70.1,61.2,52.5,79,70,62,30.02,29.85,19,2,19,0.18
2013-4-29,82.7,71.0,64.7,70.8,60.1,53.5,79,68,64,29.91,29.80,13,1,13,0.05
2013-4-30,86.7,73.8,64.8,72.6,63.3,53.6,80,70,60,29.82,29.70,13,1,13,0.01
2013-5-1,88.5,76.2,66.3,72.7,65.0,55.0,80,69,56,29.87,29.76,11,1,11,0.00
2013-5-2,78.5,66.1,50.7,68.3,56.1,42.8,76,70,66,30.18,29.86,25,3,25,0.00
2013-5-3,69.6,56.3,47.0,43.4,40.1,35.4,81,58,31,30.20,30.04,24,4,24,0.00
2013-5-4,83.0,63.1,42.3,56.2,47.1,35.5,82,59,32,30.07,29.84,15,1,15,0.00
2013-5-5,74.8,63.0,52.8,53.5,49.7,44.7,80,63,44,30.08,29.93,15,1,15,0.00
2013-5-6,78.7,63.6,46.7,62.2,52.2,39.3,81,68,47,30.10,29.95,7,0,7,0.00
2013-5-7,88.0,70.9,53.2,65.8,56.9,44.4,79,63,42,30.05,29.92,11,0,11,0.00
2013-5-8,84.3,72.1,58.1,68.7,61.2,48.8,80,69,52,30.03,29.92,13,2,13,0.00
2013-5-9,80.7,74.6,67.7,72.3,65.9,58.5,78,74,67,29.96,29.81,16,2,16,0.00
2013-5-10,81.8,73.2,64.6,72.1,63.3,54.2,78,71,66,30.01,29.79,18,1,18,2.14
2013-5-11,86.8,74.0,64.1,72.5,61.9,53.7,76,66,54,30.06,29.90,10,1,12,0.00
2013-5-12,83.6,72.5,63.1,66.4,60.1,56.8,81,66,44,30.15,30.03,13,0,13,0.00
2013-5-13,83.8,70.3,55.5,66.3,59.3,47.4,81,69,51,30.25,30.14,11,1,11,0.00
2013-5-14,83.2,71.2,58.7,71.7,61.9,49.8,80,73,64,30.20,30.06,13,1,13,0.00
2013-5-15,81.8,72.5,67.7,72.4,63.4,57.2,78,73,68,30.11,29.88,15,2,16,0.06
2013-5-16,85.8,76.6,69.3,74.8,67.3,58.6,77,73,68,29.92,29.77,18,2,18,0.00
2013-5-17,89.5,79.3,72.0,78.3,69.4,60.9,78,72,68,29.91,29.80,15,2,15,0.00
2013-5-18,91.8,81.0,74.6,76.8,69.9,63.3,78,69,56,29.92,29.84,14,2,14,0.00
2013-5-19,89.8,81.0,75.2,75.8,71.2,66.3,79,72,59,29.87,29.76,20,3,20,0.00
2013-5-20,88.8,81.5,77.1,77.3,73.0,68.3,79,75,67,29.86,29.73,13,3,17,0.00
2013-5-21,89.2,81.6,76.8,78.2,72.5,67.1,79,74,66,29.83,29.68,16,2,16,0.00
2013-5-22,92.0,81.2,73.9,79.7,71.4,64.3,77,72,66,29.89,29.76,14,1,14,0.02
2013-5-23,89.1,80.7,72.7,77.5,70.5,61.4,78,71,67,30.02,29.86,11,1,11,0.00
2013-5-24,88.8,80.5,75.2,77.2,70.4,63.9,78,71,66,30.09,29.97,14,1,14,0.00
2013-5-25,84.3,78.3,73.0,74.8,68.8,62.2,78,73,69,30.11,30.01,14,1,14,0.00
2013-5-26,89.8,80.5,73.8,75.6,69.4,63.0,79,69,57,30.07,29.97,12,1,12,0.00
2013-5-27,88.5,80.1,72.7,76.7,70.0,62.4,78,72,66,30.01,29.88,16,2,16,0.00
2013-5-28,88.0,79.7,72.8,76.5,70.1,62.5,78,73,64,29.93,29.82,18,3,18,0.00
2013-5-29,86.5,79.9,74.8,77.1,71.5,65.6,79,75,71,29.86,29.76,18,3,18,0.00
2013-5-30,89.1,81.4,75.4,79.0,72.3,65.3,78,74,69,29.84,29.76,14,3,17,0.03
2013-5-31,92.9,83.7,76.8,79.1,72.8,65.4,78,70,61,29.86,29.78,15,2,15,0.01
2013-6-1,94.8,84.1,76.7,80.2,73.0,65.8,78,70,60,29.86,29.79,15,2,15,0.00
2013-6-2,85.5,75.9,69.7,75.3,66.4,59.9,78,72,69,30.02,29.85,21,0,21,0.44
2013-6-3,94.0,79.9,65.8,73.1,66.4,56.5,79,65,45,29.93,29.78,7,0,7,0.00
2013-6-4,94.0,80.7,67.7,75.0,68.9,58.4,79,68,51,29.89,29.78,10,1,10,0.00
2013-6-5,94.1,82.5,70.8,77.6,70.9,61.1,79,69,55,29.86,29.72,10,1,10,0.00
2013-6-6,98.2,83.3,72.1,80.8,71.6,62.6,79,69,50,29.85,29.68,14,0,14,0.00
2013-6-7,90.5,78.8,67.8,72.8,66.5,59.1,78,67,49,29.92,29.81,9,0,9,0.00
2013-6-8,90.6,79.1,68.8,75.8,69.5,60.5,79,73,60,29.90,29.78,14,1,14,0.03
2013-6-9,90.8,76.4,71.1,79.2,67.4,62.0,78,74,65,29.98,29.82,16,0,16,1.78
2013-6-10,93.8,80.9,69.0,80.2,70.9,60.1,79,72,58,29.95,29.90,13,1,13,0.00
2013-6-11,91.8,82.4,73.2,81.0,73.2,64.0,79,74,67,30.00,29.93,10,1,10,0.04
2013-6-12,92.8,82.5,76.2,81.3,73.4,66.8,78,74,66,30.03,29.93,11,0,11,0.14
2013-6-13,98.0,84.4,75.8,81.8,73.9,66.2,79,71,55,30.03,29.88,11,0,11,0.00
2013-6-14,97.2,85.0,74.4,80.5,73.5,65.1,79,69,51,29.94,29.84,9,0,9,0.00
2013-6-15,94.2,83.6,75.5,79.8,73.5,66.2,79,72,60,29.97,29.86,7,0,7,0.00
2013-6-16,98.2,85.4,73.3,79.9,74.0,64.5,79,70,51,29.99,29.88,10,1,10,0.00
2013-6-17,95.6,85.0,73.9,80.4,74.2,65.1,79,71,57,29.97,29.83,11,1,11,0.00
2013-6-18,96.9,83.8,74.5,80.6,73.5,65.7,79,72,56,29.96,29.83,10,0,10,0.05
2013-6-19,78.4,76.9,75.7,71.0,68.8,66.8,78,76,75,29.91,29.88,3,0,3,0.00
2013-6-25,93.1,85.0,80.0,76.4,75.0,72.8,79,72,56,29.93,29.89,11,2,11,0.00
2013-6-26,100.7,86.8,76.2,79.3,73.8,67.9,79,67,45,29.97,29.87,13,1,13,0.00
2013-6-27,102.3,87.4,75.2,78.9,73.3,67.1,79,65,43,30.00,29.86,12,1,12,0.00
2013-6-28,103.9,87.2,74.3,78.3,72.2,66.2,79,64,35,29.96,29.76,12,1,12,0.00
2013-6-29,107.3,90.6,76.2,78.5,73.6,68.1,79,61,33,29.82,29.66,11,1,11,0.00
2013-6-30,101.2,88.0,74.8,75.5,69.6,62.0,79,57,34,29.84,29.73,9,0,9,0.00
2013-7-1,95.3,83.8,70.6,68.2,64.0,61.2,78,53,36,29.92,29.80,10,0,10,0.00
2013-7-2,98.7,82.7,66.7,69.2,64.9,60.7,81,58,32,29.98,29.88,10,0,10,0.00
2013-7-3,98.3,81.8,68.8,72.0,66.1,62.3,81,62,34,29.99,29.86,13,0,13,0.00
2013-7-4,96.8,82.3,67.9,73.4,68.5,61.2,81,65,41,29.96,29.85,11,0,11,0.00
2013-7-5,96.5,83.5,68.8,76.5,69.4,61.7,81,65,40,29.94,29.81,12,1,12,0.00
2013-7-6,96.5,84.3,72.9,77.0,72.0,65.6,81,68,46,29.90,29.80,12,1,13,0.00
2013-7-7,92.3,82.7,74.5,78.3,73.1,66.8,80,73,58,29.97,29.86,17,1,17,0.00
2013-7-8,91.7,81.5,76.1,78.6,73.0,68.4,80,76,62,30.12,29.96,11,1,11,0.07
2013-7-9,98.4,85.3,73.2,79.9,73.7,65.9,80,69,50,30.11,30.00,10,1,13,0.00
2013-7-10,101.0,86.3,74.7,79.0,74.1,67.1,80,68,46,30.06,29.91,12,1,12,0.00
2013-7-11,102.7,87.1,74.0,78.6,73.1,66.7,80,65,40,29.98,29.85,10,1,10,0.00
2013-7-12,98.7,86.7,76.4,78.2,74.3,69.0,80,68,48,29.94,29.83,11,1,11,0.00
2013-7-13,104.0,87.4,72.9,77.8,72.8,65.7,81,64,38,29.95,29.80,14,0,14,0.00
2013-7-14,94.7,84.5,74.1,77.8,73.4,66.8,81,70,54,29.91,29.81,9,1,11,0.09
2013-7-15,87.8,78.2,73.1,77.2,70.8,66.1,82,78,68,30.00,29.87,10,0,11,0.16
2013-7-16,89.3,79.8,74.4,77.9,72.5,67.8,82,78,67,30.07,29.97,15,1,15,0.05
2013-7-17,83.8,78.0,74.5,76.1,71.2,67.9,82,80,77,30.14,30.05,11,0,11,0.12
2013-7-18,95.1,83.3,73.3,77.8,70.7,66.4,82,68,42,30.10,29.95,13,1,13,0.00
2013-7-19,95.8,80.3,71.5,78.1,71.0,65.0,82,74,50,30.03,29.90,16,0,16,0.01
2013-7-20,92.8,80.5,75.8,78.6,72.8,69.2,81,78,61,29.95,29.84,15,0,15,0.05
2013-7-21,89.2,80.2,73.7,77.9,72.7,67.2,82,78,68,29.97,29.88,12,1,14,0.23
2013-7-22,97.8,86.2,77.5,80.3,75.6,70.5,82,72,54,29.98,29.91,16,2,16,0.00
2013-7-23,99.6,86.4,76.0,78.6,74.4,69.4,82,69,45,30.00,29.88,15,1,15,0.00
2013-7-24,101.8,86.0,73.3,78.4,74.1,67.0,82,69,44,29.97,29.83,13,1,13,0.00
2013-7-25,101.5,86.7,74.6,78.8,73.9,68.4,82,68,43,30.00,29.91,16,1,16,0.00
2013-7-26,100.1,86.1,75.2,79.1,74.8,68.6,81,70,48,30.01,29.86,13,1,13,0.00
2013-7-27,98.9,86.7,79.1,80.4,76.4,72.6,82,73,50,29.92,29.80,12,1,12,0.00
2013-7-28,95.8,84.8,78.8,81.2,75.4,72.5,81,74,55,29.93,29.85,13,1,13,0.02
2013-7-29,100.8,86.6,76.9,78.6,73.4,67.4,82,67,37,30.04,29.92,16,2,16,0.00
2013-7-30,101.7,86.1,74.2,78.2,72.9,68.0,82,67,37,30.08,29.98,13,1,13,0.00
2013-7-31,103.8,86.8,73.3,78.5,73.4,67.0,82,67,40,30.06,29.89,11,1,11,0.00
2013-8-1,100.6,87.2,75.6,78.4,74.1,69.4,81,67,43,30.00,29.85,11,1,11,0.00
2013-8-2,98.9,86.7,75.1,78.8,74.4,68.9,81,69,46,29.96,29.86,13,1,13,0.00
2013-8-3,103.2,87.3,75.0,78.8,74.9,68.8,81,68,41,30.01,29.90,15,1,15,0.00
2013-8-4,98.0,86.2,77.6,80.2,76.1,71.0,81,73,52,30.04,29.92,14,1,14,0.17
2013-8-5,103.8,87.6,75.1,79.0,74.5,68.9,81,67,41,30.01,29.88,14,1,14,0.00
2013-8-6,102.4,87.6,76.7,79.8,75.2,70.1,81,68,43,29.94,29.83,17,2,17,0.00
2013-8-7,103.5,88.1,76.7,78.3,74.3,70.1,81,66,37,29.92,29.80,13,1,13,0.00
2013-8-8,106.2,87.5,73.8,78.9,73.7,67.6,81,66,34,29.91,29.78,12,1,14,0.00
2013-8-9,102.7,86.4,72.6,78.4,74.0,66.4,82,68,44,29.94,29.82,10,1,10,0.00
2013-8-10,95.5,85.4,76.9,79.6,75.4,70.5,81,73,54,30.00,29.91,12,1,12,0.00
2013-8-11,95.5,85.5,76.6,79.7,74.8,70.3,81,71,52,30.02,29.96,14,1,14,0.00
2013-8-12,101.5,85.8,74.5,79.8,74.8,68.3,81,71,48,30.04,29.92,14,1,14,0.09
2013-8-13,105.1,89.0,76.6,79.0,74.2,70.0,81,65,37,30.00,29.84,13,1,13,0.00
2013-8-14,105.0,86.1,75.2,78.7,73.3,69.0,81,69,37,29.96,29.81,18,1,18,0.32
2013-8-15,92.0,80.5,74.4,75.6,70.9,67.8,82,73,52,29.99,29.87,7,0,7,0.02
2013-8-16,99.5,82.8,71.2,76.4,71.8,65.5,83,71,44,29.96,29.82,22,0,22,0.08
2013-8-17,96.3,81.6,70.9,74.1,67.4,63.4,82,65,40,29.98,29.86,11,0,11,0.00
2013-8-18,94.8,82.0,68.8,72.3,68.1,63.1,82,65,40,29.99,29.92,12,0,12,0.00
2013-8-19,95.5,82.4,69.3,75.0,68.6,63.6,82,66,38,30.01,29.88,13,1,13,0.00
2013-8-20,88.5,78.8,70.6,76.1,70.8,64.8,82,77,63,30.01,29.92,13,0,13,0.04
2013-8-21,95.6,82.0,71.2,78.1,71.9,65.0,82,73,50,30.04,29.95,12,1,12,0.00
2013-8-22,94.7,83.8,74.1,78.5,73.9,67.6,81,73,55,30.03,29.90,12,1,12,0.00
2013-8-23,98.0,85.3,72.8,78.1,72.8,66.6,81,68,46,29.98,29.84,12,1,12,0.00
2013-8-24,97.7,85.8,74.9,78.2,73.3,68.7,81,68,45,29.98,29.89,14,1,14,0.00
2013-8-25,87.5,81.2,78.1,76.8,73.5,71.4,81,78,68,30.04,29.96,15,1,15,0.07
2013-8-26,83.5,76.9,74.1,75.1,70.3,67.5,81,80,75,30.09,30.00,16,0,16,0.31
2013-8-27,95.2,79.1,72.5,78.3,70.6,66.0,82,76,54,30.08,29.99,13,1,13,25.14
2013-8-28,94.5,82.5,71.3,78.6,71.4,64.8,80,70,53,30.06,29.95,8,0,8,0.01
2013-8-29,101.2,85.9,74.6,79.2,73.8,68.3,81,69,44,30.05,29.89,11,0,11,0.00
2013-8-30,99.2,85.9,77.3,79.3,75.1,70.7,81,71,51,29.99,29.85,12,1,12,0.00
2013-8-31,96.3,85.3,74.7,78.7,73.8,68.5,81,70,52,29.92,29.80,12,1,12,0.00
2013-9-4,84.2,80.9,78.4,74.2,72.7,71.3,79,76,72,30.00,29.96,1,0,3,0.00
2013-9-5,95.9,84.3,74.2,78.7,73.2,66.8,79,70,51,30.05,29.95,12,1,12,0.00
2013-9-6,93.7,83.5,74.0,78.1,73.4,66.7,79,72,57,30.04,29.92,14,1,14,0.00
2013-9-7,91.9,81.4,73.7,78.4,72.3,66.8,79,74,62,29.99,29.89,11,1,11,0.01
2013-9-8,92.8,79.3,73.5,76.8,70.5,66.2,79,75,56,29.94,29.86,18,0,18,1.06
2013-9-9,91.6,79.5,71.7,77.5,70.8,64.5,79,75,58,29.95,29.89,13,1,13,0.03
2013-9-10,90.4,81.4,74.9,76.9,72.1,67.5,79,74,57,30.03,29.94,14,1,14,0.00
2013-9-11,92.8,81.9,71.7,76.8,71.3,64.5,79,71,52,30.05,29.94,11,1,11,0.00
2013-9-12,94.0,82.2,71.9,76.7,70.1,64.7,79,68,46,30.00,29.86,13,1,13,0.00
2013-9-13,95.6,82.4,70.0,76.3,69.2,62.8,79,66,43,29.91,29.76,12,1,12,0.00
2013-9-14,92.6,82.4,73.3,77.0,72.0,66.0,79,71,57,29.89,29.80,11,1,11,0.00
2013-9-15,92.3,82.7,74.5,78.2,72.7,66.8,78,72,59,29.96,29.87,13,1,13,0.00
2013-9-16,94.7,82.4,76.4,78.4,73.0,68.7,78,74,55,29.99,29.91,14,1,14,0.00
2013-9-17,94.2,83.4,75.2,78.3,72.8,67.5,78,71,51,30.01,29.89,15,1,15,0.00
2013-9-18,93.0,82.7,74.0,78.4,72.4,66.3,78,72,58,29.97,29.85,13,1,13,0.00
2013-9-19,91.5,82.2,74.9,78.9,73.1,66.8,77,74,65,29.91,29.80,14,1,14,0.14
2013-9-20,84.3,78.8,74.7,75.9,70.5,66.9,77,76,75,29.85,29.68,16,1,16,4.11
2013-9-21,81.4,74.6,70.7,71.0,66.9,63.9,79,77,69,29.81,29.72,12,1,12,0.24
2013-9-22,86.7,76.3,65.5,68.8,63.5,59.2,80,66,43,29.82,29.70,13,1,13,0.00
2013-9-23,88.2,79.1,72.4,75.1,68.7,62.3,79,71,62,29.78,29.69,7,0,7,0.00
2013-9-24,96.3,82.3,72.2,77.5,70.7,65.2,79,69,43,29.83,29.74,11,0,11,0.00
2013-9-25,96.5,83.9,71.0,72.7,68.0,64.2,79,61,39,29.81,29.74,5,0,5,0.00
2013-9-26,92.2,79.7,67.1,75.6,67.5,59.7,78,68,45,29.87,29.78,6,1,11,0.00
2013-9-27,89.3,81.4,72.4,78.1,72.4,64.5,77,74,68,29.90,29.83,16,2,16,0.00
2013-9-28,90.0,82.8,78.5,79.8,74.1,69.9,76,75,71,29.94,29.84,16,2,16,0.00
2013-9-29,87.5,80.4,77.1,76.4,71.6,68.7,76,75,69,29.95,29.85,9,0,11,0.05
2013-9-30,89.4,78.9,73.8,77.4,70.0,65.8,76,74,67,29.88,29.77,10,0,10,0.26
2013-10-1,89.0,79.0,74.0,77.8,70.2,66.0,76,74,69,29.91,29.81,9,1,16,0.01
2013-10-2,85.0,78.0,73.6,75.4,69.1,65.2,76,74,73,29.94,29.86,14,1,14,0.29
2013-10-3,91.5,80.4,72.4,77.3,70.5,63.6,75,72,61,29.92,29.82,12,1,12,0.00
2013-10-4,90.0,80.2,70.1,76.1,69.5,61.0,74,70,60,29.90,29.83,13,0,13,0.00
2013-10-5,94.3,80.7,67.4,77.4,69.4,59.4,76,69,54,29.94,29.80,14,0,14,0.00
2013-10-6,79.6,66.2,56.2,59.5,53.5,47.1,78,65,38,30.09,29.93,14,1,14,0.27
2013-10-7,81.9,64.8,51.2,56.5,50.3,44.6,78,62,34,30.11,30.00,7,0,7,0.00
2013-10-8,83.8,65.7,50.7,60.8,52.1,43.4,77,64,37,30.07,29.95,5,0,5,0.00
2013-10-9,82.8,67.9,55.7,66.1,57.8,47.9,76,71,53,30.05,29.94,10,0,10,0.00
2013-10-10,83.8,66.3,59.2,69.0,57.2,51.3,76,73,61,30.02,29.98,9,0,9,0.00
2013-10-12,80.7,75.5,73.4,71.2,66.2,64.2,73,73,73,30.01,29.89,10,0,10,0.47
2013-10-13,75.8,74.2,72.5,67.2,65.4,63.8,75,74,73,30.11,29.99,6,0,9,0.39
2013-10-14,84.8,77.2,72.0,74.0,68.0,63.3,75,73,66,30.06,29.92,15,1,15,0.00
2013-10-15,83.8,73.9,70.8,74.1,64.8,62.1,74,73,72,29.95,29.92,6,0,6,0.00
2013-10-16,68.1,64.8,63.1,59.1,56.3,54.7,74,74,73,30.00,29.91,10,1,10,0.05
2013-10-17,67.7,62.2,59.2,57.8,53.9,51.7,76,74,71,30.05,29.97,10,0,10,0.00
2013-10-18,73.7,68.6,64.0,64.4,59.7,55.2,75,73,71,29.97,29.85,12,1,12,0.09
2013-10-19,70.5,62.3,49.6,56.6,51.6,42.3,77,69,47,30.10,29.92,15,1,15,0.53
2013-10-20,75.8,61.1,45.0,62.0,50.8,37.9,76,70,49,30.07,29.91,4,0,7,0.01
2013-10-21,78.0,69.0,61.1,67.6,59.6,52.4,74,72,68,29.96,29.86,5,0,9,0.00
2013-10-22,67.4,64.7,62.1,57.9,55.6,53.0,73,72,71,30.07,29.93,10,1,10,0.00
2013-10-27,74.5,68.6,63.9,64.5,58.8,54.2,72,71,70,30.02,29.98,1,0,3,1.13
2013-10-28,84.0,71.9,61.1,72.8,61.9,52.1,73,71,67,30.07,29.98,14,1,14,0.00
2013-10-29,83.8,74.4,66.6,72.1,63.8,56.5,72,70,67,30.07,29.99,13,1,13,0.00
2013-10-30,83.8,78.4,73.9,72.0,66.7,62.7,69,67,66,30.02,29.81,18,2,18,0.32
2013-10-31,77.8,70.5,58.1,65.5,59.3,47.9,71,68,66,29.87,29.73,17,1,17,2.36
2013-11-1,80.3,65.5,51.5,65.8,54.1,42.0,72,67,54,29.95,29.79,9,1,9,0.10
2013-11-2,73.8,63.6,50.8,53.5,48.9,43.1,75,60,36,30.20,29.95,17,1,17,0.00
2013-11-3,71.5,57.5,44.1,56.5,47.7,35.7,76,70,54,30.19,30.04,11,1,11,0.00
2013-11-4,69.7,64.6,57.1,57.9,54.1,47.8,75,69,65,30.06,29.96,12,1,12,0.28
2013-11-5,74.7,69.4,67.9,62.1,57.3,56.0,66,65,64,30.01,29.96,7,0,10,0.01
2013-11-6,79.3,66.1,54.9,67.8,56.2,46.4,73,70,67,30.24,30.02,14,2,14,0.00
2013-11-7,67.5,56.6,48.3,48.5,44.4,40.4,74,64,46,30.38,30.22,16,2,16,0.00
2013-11-8,65.7,56.0,47.1,47.5,44.0,38.3,76,65,43,30.34,30.16,13,1,13,0.00
2013-11-9,71.0,61.4,51.7,59.9,51.1,41.6,73,69,66,30.18,30.10,6,0,6,0.00
2013-11-10,73.5,62.9,55.2,56.7,50.6,45.6,74,65,42,30.26,30.16,3,0,10,0.00
2013-11-11,76.2,61.9,51.7,60.8,50.3,40.7,72,66,56,30.23,30.11,5,0,5,0.00
2013-11-12,72.0,57.9,50.0,59.6,47.6,39.3,76,69,62,30.53,30.19,19,2,19,0.00
2013-11-13,57.4,45.8,37.6,41.6,33.2,28.7,76,62,41,30.59,30.38,15,1,15,0.00
2013-11-14,65.2,50.4,36.6,54.0,41.0,28.2,74,70,66,30.38,30.03,12,1,12,0.00
2013-11-15,80.2,67.1,55.1,67.2,55.6,44.7,71,67,62,30.03,29.87,9,1,9,0.00
2013-11-16,82.9,72.4,60.9,71.3,58.6,48.2,68,62,57,29.92,29.76,11,2,17,0.00
2013-11-17,86.1,78.0,70.9,73.4,62.8,54.4,67,60,55,29.91,29.77,19,1,19,0.00
2013-11-18,78.2,72.5,65.9,66.6,56.8,49.6,68,58,54,30.08,29.90,12,1,12,0.00
2013-11-19,70.0,62.6,53.5,55.8,49.3,42.7,74,62,54,30.11,29.99,12,1,12,0.00
2013-11-20,74.1,65.6,53.3,64.1,54.3,42.6,74,67,54,30.00,29.89,13,2,13,0.06
2013-11-21,81.6,75.4,69.2,65.2,56.2,51.9,60,51,48,30.04,29.92,15,3,15,0.12
2013-11-22,74.7,55.4,43.1,53.7,38.5,28.9,58,53,47,30.27,30.02,19,4,19,0.63
2013-11-23,49.2,46.3,42.4,38.9,32.4,28.3,71,58,55,30.35,30.24,17,5,17,0.05
2013-11-24,51.0,46.4,43.7,38.7,36.2,34.0,74,68,56,30.39,30.26,16,3,16,0.01
2013-11-25,44.1,42.3,40.4,35.9,28.9,26.1,74,59,55,30.27,29.95,17,3,17,0.89
2013-11-26,45.2,41.8,39.5,35.2,28.7,25.5,68,60,56,30.27,30.01,20,5,20,0.25
2013-11-27,51.2,41.0,32.7,34.7,30.2,23.0,75,66,47,30.43,30.27,15,3,15,0.00
2013-11-28,56.4,42.8,30.4,45.4,31.6,18.8,70,64,57,30.44,30.34,9,0,9,0.00
2013-11-29,63.2,48.6,36.2,47.2,35.2,22.6,72,60,53,30.48,30.35,7,0,9,0.00
2013-11-30,72.0,55.2,39.1,58.3,41.8,24.9,69,61,52,30.37,30.19,9,1,9,0.00
2013-12-1,73.3,61.8,49.9,60.8,45.3,33.0,66,55,48,30.19,29.92,11,1,11,0.00
2013-12-2,78.0,66.6,60.2,65.3,48.2,40.1,65,52,45,29.92,29.66,13,1,13,0.01
2013-12-3,81.4,68.4,56.7,68.1,48.3,36.7,65,49,39,29.72,29.60,16,2,16,0.00
2013-12-4,80.3,73.8,69.9,65.6,49.6,43.6,61,43,36,29.79,29.67,17,2,17,0.00
2013-12-5,73.9,56.8,38.5,45.1,35.3,21.0,61,46,35,30.02,29.76,20,4,20,0.10
2013-12-6,42.9,38.8,35.3,30.2,23.4,19.3,65,54,46,30.34,29.96,19,6,19,0.04
2013-12-7,36.6,35.5,33.8,25.0,22.2,18.3,67,58,48,30.38,30.24,16,3,16,0.02
2013-12-8,48.1,42.6,36.1,36.8,26.0,18.1,65,52,46,30.24,30.03,6,1,9,0.01
2013-12-9,47.5,45.6,39.8,26.7,24.6,20.3,46,43,42,30.28,30.03,18,3,18,0.08
2013-12-10,48.7,39.0,32.9,34.1,26.9,20.3,72,62,46,30.44,30.28,12,4,19,0.00
2013-12-11,53.2,46.1,35.9,42.7,36.1,23.5,72,68,59,30.48,30.31,11,1,11,0.00
2013-12-12,54.9,45.0,36.7,40.5,32.7,20.6,71,62,49,30.53,30.33,10,1,10,0.00
2013-12-13,59.0,51.5,41.6,44.6,33.4,24.5,65,51,39,30.33,29.82,11,1,11,0.02
2013-12-14,57.8,50.0,40.2,45.2,33.1,24.9,69,53,38,30.27,29.85,24,5,24,0.01
2013-12-15,58.0,42.6,31.5,38.8,29.3,16.9,71,60,47,30.38,30.25,11,2,11,0.00
2013-12-16,65.2,45.5,29.9,42.8,29.6,13.1,70,54,42,30.34,30.21,7,0,7,0.00
2013-12-17,71.8,49.9,34.4,51.3,32.6,16.3,69,52,41,30.33,30.21,7,0,7,0.00
2013-12-18,71.0,53.9,37.9,57.3,35.5,18.5,65,50,37,30.29,30.08,11,1,11,0.00
2013-12-19,77.3,67.0,54.3,63.6,44.6,30.0,63,45,36,30.08,29.84,21,3,21,0.03
2013-12-20,77.3,73.3,69.2,51.1,44.5,40.4,40,36,34,29.87,29.69,21,3,21,0.00
2013-12-21,75.1,67.3,53.6,47.0,39.9,29.3,42,37,33,29.83,29.55,19,3,19,0.57
2013-12-22,59.2,52.8,39.3,45.6,35.3,29.8,70,53,37,30.32,29.72,17,4,17,0.01
2013-12-23,55.9,42.0,34.1,38.0,30.5,22.2,71,64,49,30.51,30.31,11,3,14,0.00
2013-12-24,57.9,43.0,29.9,37.8,27.0,12.8,70,54,37,30.53,30.30,11,1,11,0.00
2013-12-25,59.6,50.8,36.9,47.4,35.3,21.0,66,55,42,30.33,30.24,11,1,11,0.00
2013-12-26,61.2,53.9,48.6,49.3,35.7,25.4,65,51,39,30.39,30.26,7,1,7,0.01
2013-12-27,59.0,52.7,47.4,46.2,39.6,32.8,69,61,51,30.40,30.28,9,0,9,0.00
2013-12-28,61.0,49.3,40.9,42.1,36.6,24.6,70,62,44,30.29,30.02,5,0,5,0.00
2013-12-29,68.2,52.2,37.3,51.6,35.7,18.1,69,54,41,30.16,29.97,16,1,16,0.00
2013-12-30,46.9,41.7,38.6,36.9,32.7,29.6,71,70,67,30.38,30.15,18,4,18,0.00
2013-12-31,49.6,44.6,40.3,38.8,35.0,31.3,73,69,64,30.44,30.25,9,1,9,0.00
2014-1-1,66.6,56.1,47.0,54.5,38.0,27.7,69,51,37,30.26,30.00,11,1,11,0.01
2014-1-2,59.5,46.6,35.8,38.8,31.4,26.8,70,57,37,30.43,30.04,23,5,23,0.01